Aeroporto :
LOGIN :

Iscrizione | Disclaimer

   EN    FR    IT 

 










Sommario :    VFR   VFR Marginale   IFR   IFR Intensivo   IFR Molto Intensivo
Visibilità : 
Base nubi : 
>= 8 km
>= 3000ft
5 / 8 km
1000 / 3000 ft
1500m / 5 km
500 / 1000 ft
800 / 1500m
200 / 500 ft
< 800m
< 200 ft
Simboli :   Temporali  Nebbia  Neve Forte  Precipitazioni Forti  Vento > 20 kt
SIGMETs :   Varie  Temporali  Ghiacco  Turbolenza  Onda orograficha  Ceneri Vulcaniche







- Altitudine del aeroporto : 1768 ft


LEHC - Huesca Pirineos

ULTIMO METAR :
  • 240130Z AUTO VRB02KT 7000 NCD 04/04 Q1028

METARs OBSOLETI :
  • 240100Z AUTO 04002KT 8000 FEW009/// 04/03 Q1028
  • 240030Z AUTO 03002KT 9999 SCT009/// 05/05 Q1028
  • 240000Z AUTO 07003KT 9999 FEW010/// 06/06 Q1028
  • 232330Z AUTO 07003KT 9999 NCD 06/06 Q1028
  • 232300Z AUTO 07003KT 9999 NCD 06/06 Q1028

TAF TAF LEHC
Valido dal 23 a 15 ore il 24 a 15 ore UTC


231400Z 2315/2415 28006KT 9999 FEW030 TX19/2414Z TN04/2407Z
BECMG 2318/2320 VRB03KT
BECMG 2401/2403 09008KT
Nessun NOTAM noto per questo aeroporto.



MetMap, La meteo Aeronautica in un colpo d'occhio ! - Copyright ORBIFLY Dicembre 2007 - Disclaimer

ORBIFLY MET'MAP TEAM :

Programmazione e sviluppo : Alexandra Zaïnal
Concezione e sviluppo : Baudouin d'Aumeries
Co-Programmazione e sviluppo : Marc-Olivier Méhu
Supporto tecnico e logistico : Manuel Goepfert
Aiuto per la traduzione : Arnaldo La Scala

Contatto : metmap@orbifly.com




FONTI E CREDITI :

   NOAA